Apostle Islands National Lak, Wisconsin
Current Conditions -  °F | °C
As of 9:53 PM on Saturday 20 Dec 2014 (Local Time) from KASX Reporting Station
Overcast Overcast  
Wind Chill: -5°   Ceiling: 1700
Heat Index: -1°   Visibility: 10mi
Dew Point: -3°   Wind: 8mph
Humidity: 82%   Direction: 190°S
Pressure: 30.11"   Gusts: NA
Location:  46.8614°N, 90.9101°W
Report Text: KASX 210353Z AUTO 19007KT 10SM OVC017 M01/M03 A3011 RMK AO2 SLP210 T10061033
Loading
Personal Weather Stations






























Interactive Weather Map New forecast layout! Learn more

10-Day Weather Forecast

Advertisements
Track Severe Weather on mobile